Time,TemperatureF,DewpointF,PressureIn,WindDirection,WindDirectionDegrees,WindSpeedMPH,WindSpeedGustMPH,Humidity,HourlyPrecipIn,Conditions,Clouds,dailyrainin,SolarRadiationWatts/m^2,SoftwareType,DateUTC
2013-10-20 00:00:00,50.0,40.0,-100.00,ENE,67,15.0,23.0,69,0.00,,,0.00,0.000000,,2013-10-20 07:00:00,
2013-10-20 00:22:00,50.0,40.0,-100.00,ENE,67,15.0,23.0,69,0.00,,,0.00,0.000000,,2013-10-20 07:22:00,
2013-10-20 00:32:00,50.0,40.0,-100.00,ENE,67,15.0,23.0,69,0.00,,,0.00,0.000000,,2013-10-20 07:32:00,
2013-10-20 00:42:00,50.0,40.0,-100.00,ENE,67,15.0,23.0,69,0.00,,,0.00,0.000000,,2013-10-20 07:42:00,
2013-10-20 00:52:00,50.0,40.0,-100.00,ENE,67,15.0,23.0,69,0.00,,,0.00,0.000000,,2013-10-20 07:52:00,
2013-10-20 01:00:00,48.0,38.0,-100.00,ENE,66,14.0,21.0,68,0.00,,,0.00,0.000000,,2013-10-20 08:00:00,
2013-10-20 01:22:00,48.0,38.0,-100.00,ENE,66,14.0,21.0,68,0.00,,,0.00,0.000000,,2013-10-20 08:22:00,
2013-10-20 01:33:00,48.0,38.0,-100.00,ENE,66,14.0,21.0,68,0.00,,,0.00,0.000000,,2013-10-20 08:33:00,
2013-10-20 01:42:00,48.0,38.0,-100.00,ENE,66,14.0,21.0,68,0.00,,,0.00,0.000000,,2013-10-20 08:42:00,
2013-10-20 01:52:00,48.0,38.0,-100.00,ENE,66,14.0,21.0,68,0.00,,,0.00,0.000000,,2013-10-20 08:52:00,
2013-10-20 02:00:00,49.0,39.0,-100.00,ENE,67,14.0,21.0,68,0.00,,,0.00,0.000000,,2013-10-20 09:00:00,
2013-10-20 02:43:00,49.0,39.0,-100.00,ENE,67,14.0,21.0,68,0.00,,,0.00,0.000000,,2013-10-20 09:43:00,
2013-10-20 02:53:00,49.0,39.0,-100.00,ENE,67,14.0,21.0,68,0.00,,,0.00,0.000000,,2013-10-20 09:53:00,
2013-10-20 03:00:00,48.0,39.0,-100.00,ENE,69,14.0,22.0,70,0.00,,,0.00,0.000000,,2013-10-20 10:00:00,
2013-10-20 03:43:00,48.0,39.0,-100.00,ENE,69,14.0,22.0,70,0.00,,,0.00,0.000000,,2013-10-20 10:43:00,
2013-10-20 03:53:00,48.0,39.0,-100.00,ENE,69,14.0,22.0,70,0.00,,,0.00,0.000000,,2013-10-20 10:53:00,
2013-10-20 04:00:00,46.0,38.0,-100.00,ENE,62,14.0,23.0,73,0.00,,,0.00,0.000000,,2013-10-20 11:00:00,
2013-10-20 04:43:00,46.0,38.0,-100.00,ENE,62,14.0,23.0,73,0.00,,,0.00,0.000000,,2013-10-20 11:43:00,
2013-10-20 04:52:00,46.0,38.0,-100.00,ENE,62,14.0,23.0,73,0.00,,,0.00,0.000000,,2013-10-20 11:52:00,
2013-10-20 05:00:00,46.0,39.0,-100.00,ENE,60,14.0,21.0,77,0.00,,,-99.99,0.000000,,2013-10-20 12:00:00,
2013-10-20 05:42:00,46.0,39.0,-100.00,ENE,60,14.0,21.0,77,0.00,,,-99.99,0.000000,,2013-10-20 12:42:00,
2013-10-20 05:52:00,46.0,39.0,-100.00,ENE,60,14.0,21.0,77,0.00,,,-99.99,0.000000,,2013-10-20 12:52:00,
2013-10-20 06:00:00,46.0,39.0,-100.00,ENE,60,14.0,22.0,76,0.00,,,0.00,0.000000,,2013-10-20 13:00:00,
2013-10-20 06:42:00,46.0,39.0,-100.00,ENE,60,14.0,22.0,76,0.00,,,0.00,0.000000,,2013-10-20 13:42:00,
2013-10-20 06:52:00,46.0,39.0,-100.00,ENE,60,14.0,22.0,76,0.00,,,0.00,0.000000,,2013-10-20 13:52:00,
2013-10-20 07:00:00,44.0,38.0,-100.00,ENE,62,13.0,21.0,79,0.00,,,0.00,0.000000,,2013-10-20 14:00:00,
2013-10-20 07:42:00,44.0,38.0,-100.00,ENE,62,13.0,21.0,79,0.00,,,0.00,0.000000,,2013-10-20 14:42:00,
2013-10-20 07:52:00,44.0,38.0,-100.00,ENE,62,13.0,21.0,79,0.00,,,0.00,0.000000,,2013-10-20 14:52:00,
2013-10-20 08:00:00,44.0,39.0,-100.00,ENE,68,15.0,22.0,81,0.00,,,0.00,2.000000,,2013-10-20 15:00:00,
2013-10-20 08:44:00,44.0,39.0,-100.00,ENE,68,15.0,22.0,81,0.00,,,0.00,2.000000,,2013-10-20 15:44:00,
2013-10-20 08:54:00,44.0,39.0,-100.00,ENE,68,15.0,22.0,81,0.00,,,0.00,2.000000,,2013-10-20 15:54:00,
2013-10-20 09:00:00,51.0,40.0,-100.00,ENE,70,12.0,20.0,67,0.00,,,0.00,103.000000,,2013-10-20 16:00:00,
2013-10-20 09:43:00,51.0,40.0,-100.00,ENE,70,12.0,20.0,67,0.00,,,0.00,103.000000,,2013-10-20 16:43:00,
2013-10-20 09:54:00,51.0,40.0,-100.00,ENE,70,12.0,20.0,67,0.00,,,0.00,103.000000,,2013-10-20 16:54:00,
2013-10-20 10:00:00,52.0,38.0,-100.00,ENE,71,11.0,18.0,59,0.00,,,0.00,290.000000,,2013-10-20 17:00:00,
2013-10-20 10:42:00,52.0,38.0,-100.00,ENE,71,11.0,18.0,59,0.00,,,0.00,290.000000,,2013-10-20 17:42:00,
2013-10-20 10:52:00,52.0,38.0,-100.00,ENE,71,11.0,18.0,59,0.00,,,0.00,290.000000,,2013-10-20 17:52:00,
2013-10-20 11:00:00,54.0,39.0,-100.00,ENE,63,11.0,17.0,56,0.00,,,0.00,454.000000,,2013-10-20 18:00:00,
2013-10-20 11:42:00,54.0,39.0,-100.00,ENE,63,11.0,17.0,56,0.00,,,0.00,454.000000,,2013-10-20 18:42:00,
2013-10-20 11:52:00,54.0,39.0,-100.00,ENE,63,11.0,17.0,56,0.00,,,0.00,454.000000,,2013-10-20 18:52:00,
2013-10-20 12:00:00,52.0,40.0,-100.00,NE,56,12.0,18.0,64,0.00,,,0.00,552.000000,,2013-10-20 19:00:00,
2013-10-20 12:42:00,52.0,40.0,-100.00,NE,56,12.0,18.0,64,0.00,,,0.00,552.000000,,2013-10-20 19:42:00,
2013-10-20 12:52:00,52.0,40.0,-100.00,NE,56,12.0,18.0,64,0.00,,,0.00,552.000000,,2013-10-20 19:52:00,
2013-10-20 13:00:00,54.0,40.0,-100.00,NE,55,11.0,16.0,59,0.00,,,0.00,619.000000,,2013-10-20 20:00:00,
2013-10-20 13:43:00,54.0,40.0,-100.00,NE,55,11.0,16.0,59,0.00,,,0.00,619.000000,,2013-10-20 20:43:00,
2013-10-20 13:52:00,54.0,40.0,-100.00,NE,55,11.0,16.0,59,0.00,,,0.00,619.000000,,2013-10-20 20:52:00,
2013-10-20 14:00:00,57.0,41.0,-100.00,ENE,57,11.0,17.0,55,0.00,,,0.00,582.000000,,2013-10-20 21:00:00,
2013-10-20 14:44:00,57.0,41.0,-100.00,ENE,57,11.0,17.0,55,0.00,,,0.00,582.000000,,2013-10-20 21:44:00,
2013-10-20 14:54:00,57.0,41.0,-100.00,ENE,57,11.0,17.0,55,0.00,,,0.00,582.000000,,2013-10-20 21:54:00,
2013-10-20 15:00:00,56.0,39.0,-100.00,ENE,57,9.0,17.0,52,0.00,,,0.00,586.000000,,2013-10-20 22:00:00,
2013-10-20 15:43:00,56.0,39.0,-100.00,ENE,57,9.0,17.0,52,0.00,,,0.00,586.000000,,2013-10-20 22:43:00,
2013-10-20 15:53:00,56.0,39.0,-100.00,ENE,57,9.0,17.0,52,0.00,,,0.00,586.000000,,2013-10-20 22:53:00,
2013-10-20 16:00:00,55.0,40.0,-100.00,NE,40,11.0,14.0,56,0.00,,,0.00,472.000000,,2013-10-20 23:00:00,
2013-10-20 16:43:00,55.0,40.0,-100.00,NE,40,11.0,14.0,56,0.00,,,0.00,472.000000,,2013-10-20 23:43:00,
2013-10-20 16:52:00,55.0,40.0,-100.00,NE,40,11.0,14.0,56,0.00,,,0.00,472.000000,,2013-10-20 23:52:00,
2013-10-20 17:00:00,57.0,39.0,-100.00,NE,51,9.0,14.0,51,0.00,,,0.00,312.000000,,2013-10-21 00:00:00,
2013-10-20 17:22:00,57.0,39.0,-100.00,NE,51,9.0,14.0,51,0.00,,,0.00,312.000000,,2013-10-21 00:22:00,
2013-10-20 17:32:00,57.0,39.0,-100.00,NE,51,9.0,14.0,51,0.00,,,0.00,312.000000,,2013-10-21 00:32:00,
2013-10-20 17:43:00,57.0,39.0,-100.00,NE,51,9.0,14.0,51,0.00,,,0.00,312.000000,,2013-10-21 00:43:00,
2013-10-20 17:52:00,57.0,39.0,-100.00,NE,51,9.0,14.0,51,0.00,,,0.00,312.000000,,2013-10-21 00:52:00,
2013-10-20 18:00:00,53.0,37.0,-100.00,NE,53,11.0,14.0,54,0.00,,,0.00,117.000000,,2013-10-21 01:00:00,
2013-10-20 18:42:00,53.0,37.0,-100.00,NE,53,11.0,14.0,54,0.00,,,0.00,117.000000,,2013-10-21 01:42:00,
2013-10-20 18:52:00,53.0,37.0,-100.00,NE,53,11.0,14.0,54,0.00,,,0.00,117.000000,,2013-10-21 01:52:00,
2013-10-20 19:00:00,54.0,38.0,-100.00,ENE,57,13.0,17.0,54,0.00,,,0.00,5.000000,,2013-10-21 02:00:00,
2013-10-20 19:22:00,54.0,38.0,-100.00,ENE,57,13.0,17.0,54,0.00,,,0.00,5.000000,,2013-10-21 02:22:00,
2013-10-20 19:32:00,54.0,38.0,-100.00,ENE,57,13.0,17.0,54,0.00,,,0.00,5.000000,,2013-10-21 02:32:00,
2013-10-20 19:42:00,54.0,38.0,-100.00,ENE,57,13.0,17.0,54,0.00,,,0.00,5.000000,,2013-10-21 02:42:00,
2013-10-20 19:52:00,54.0,38.0,-100.00,ENE,57,13.0,17.0,54,0.00,,,0.00,5.000000,,2013-10-21 02:52:00,
2013-10-20 20:00:00,54.0,38.0,-100.00,ENE,65,15.0,21.0,54,0.00,,,0.00,0.000000,,2013-10-21 03:00:00,
2013-10-20 20:45:00,54.0,38.0,-100.00,ENE,65,15.0,21.0,54,0.00,,,0.00,0.000000,,2013-10-21 03:45:00,
2013-10-20 20:54:00,54.0,38.0,-100.00,ENE,65,15.0,21.0,54,0.00,,,0.00,0.000000,,2013-10-21 03:54:00,
2013-10-20 21:00:00,52.0,39.0,-100.00,ENE,60,16.0,23.0,60,0.00,,,0.00,0.000000,,2013-10-21 04:00:00,
2013-10-20 21:44:00,52.0,39.0,-100.00,ENE,60,16.0,23.0,60,0.00,,,0.00,0.000000,,2013-10-21 04:44:00,
2013-10-20 21:53:00,52.0,39.0,-100.00,ENE,60,16.0,23.0,60,0.00,,,0.00,0.000000,,2013-10-21 04:53:00,
2013-10-20 22:00:00,49.0,38.0,-100.00,ENE,57,18.0,25.0,66,0.00,,,0.00,0.000000,,2013-10-21 05:00:00,
2013-10-20 22:43:00,49.0,38.0,-100.00,ENE,57,18.0,25.0,66,0.00,,,0.00,0.000000,,2013-10-21 05:43:00,
2013-10-20 22:52:00,49.0,38.0,-100.00,ENE,57,18.0,25.0,66,0.00,,,0.00,0.000000,,2013-10-21 05:52:00,
2013-10-20 23:00:00,49.0,38.0,-100.00,ENE,60,18.0,25.0,66,0.00,,,0.00,0.000000,,2013-10-21 06:00:00,
2013-10-20 23:42:00,49.0,38.0,-100.00,ENE,60,18.0,25.0,66,0.00,,,0.00,0.000000,,2013-10-21 06:42:00,
2013-10-20 23:52:00,49.0,38.0,-100.00,ENE,60,18.0,25.0,66,0.00,,,0.00,0.000000,,2013-10-21 06:52:00,